Time;durP1;ratioP1;P1;durP2;ratioP2;P2;SDS_P1;SDS_P2;PMS_P1;PMS_P2;Temp;Humidity;BMP_temperature;BMP_pressure;BME280_temperature;BME280_humidity;BME280_pressure;Samples;Min_cycle;Max_cycle;Signal;HPM_P1;HPM_P2
2023/05/04 00:01:10;;;;;;;;;;;6.60;99.90;;;;;;5133629;27;19915;-71
2023/05/04 00:03:36;;;;;;;;;;;6.60;99.90;;;;;;5151649;27;19923;-71
2023/05/04 00:06:02;;;;;;;;;;;6.60;99.90;;;;;;5128334;27;19923;-71
2023/05/04 00:08:27;;;;;;;;;;;6.50;99.90;;;;;;5131218;27;19930;-71
2023/05/04 00:10:54;;;;;;;;;;;6.50;99.90;;;;;;5135109;27;19923;-71
2023/05/04 00:13:20;;;;;;;;;;;6.50;99.90;;;;;;5150867;27;19925;-71
2023/05/04 00:15:46;;;;;;;;;;;6.50;99.90;;;;;;5142667;27;19915;-70
2023/05/04 00:18:11;;;;;;;;;;;6.40;99.90;;;;;;5142647;27;20282;-70
2023/05/04 00:20:37;;;;;;;;;;;6.40;99.90;;;;;;5123893;27;19919;-70
2023/05/04 00:23:02;;;;;;;;;;;6.40;99.90;;;;;;5140268;27;20266;-70
2023/05/04 00:25:28;;;;;;;;;;;6.40;99.90;;;;;;5146125;27;19972;-70
2023/05/04 00:27:53;;;;;;;;;;;6.30;99.90;;;;;;5122768;27;19999;-70
2023/05/04 00:30:19;;;;;;;;;;;6.30;99.90;;;;;;5118160;27;19919;-71
2023/05/04 00:32:45;;;;;;;;;;;6.30;99.90;;;;;;5139106;27;20358;-71
2023/05/04 00:35:11;;;;;;;;;;;6.30;99.90;;;;;;5134879;27;20419;-71
2023/05/04 00:37:37;;;;;;;;;;;6.30;99.90;;;;;;5093483;28;19920;-70
2023/05/04 00:40:02;;;;;;;;;;;6.20;99.90;;;;;;5110156;28;19949;-71
2023/05/04 00:42:28;;;;;;;;;;;6.20;99.90;;;;;;5110011;28;19915;-71
2023/05/04 00:44:54;;;;;;;;;;;6.20;99.90;;;;;;5110274;28;20002;-71
2023/05/04 00:47:20;;;;;;;;;;;6.10;99.90;;;;;;5109938;28;20002;-70
2023/05/04 00:49:45;;;;;;;;;;;6.10;99.90;;;;;;5112252;28;19923;-71
2023/05/04 00:52:13;;;;;;;;;;;6.10;99.90;;;;;;5130208;28;19923;-71
2023/05/04 00:54:40;;;;;;;;;;;6.10;99.90;;;;;;5110226;28;20397;-71
2023/05/04 00:57:06;;;;;;;;;;;6.10;99.90;;;;;;5127547;28;19916;-71
2023/05/04 00:59:31;;;;;;;;;;;6.10;99.90;;;;;;5109851;28;19964;-71
2023/05/04 01:01:57;;;;;;;;;;;6.00;99.90;;;;;;5109995;28;19920;-71
2023/05/04 01:04:22;;;;;;;;;;;6.10;99.90;;;;;;5119159;27;20175;-71
2023/05/04 01:07:02;;;;;;;;;;;6.00;99.90;;;;;;5133816;27;20480;-71
2023/05/04 01:09:57;;;;;;;;;;;6.10;99.90;;;;;;5140894;27;19930;-71
2023/05/04 01:12:29;;;;;;;;;;;6.00;99.90;;;;;;5127290;27;20282;-71
2023/05/04 01:14:55;;;;;;;;;;;6.00;99.90;;;;;;5127589;27;19927;-71
2023/05/04 01:17:20;;;;;;;;;;;6.00;99.90;;;;;;5131020;27;20011;-71
2023/05/04 01:19:46;;;;;;;;;;;6.00;99.90;;;;;;5114677;28;19922;-72
2023/05/04 01:22:12;;;;;;;;;;;6.00;99.90;;;;;;5120639;27;20027;-72
2023/05/04 01:24:38;;;;;;;;;;;6.00;99.90;;;;;;5129758;27;19919;-72
2023/05/04 01:27:08;;;;;;;;;;;6.00;99.90;;;;;;5124466;27;19930;-72
2023/05/04 01:29:38;;;;;;;;;;;6.00;99.90;;;;;;5121773;27;19915;-72
2023/05/04 01:32:04;;;;;;;;;;;6.00;99.90;;;;;;5114574;27;19919;-73
2023/05/04 01:34:30;;;;;;;;;;;6.00;99.90;;;;;;5119082;27;20248;-72
2023/05/04 01:36:55;;;;;;;;;;;6.00;99.90;;;;;;5117245;27;20215;-72
2023/05/04 01:39:21;;;;;;;;;;;6.00;99.90;;;;;;5132626;27;19915;-72
2023/05/04 01:41:47;;;;;;;;;;;5.90;99.90;;;;;;5133895;27;19988;-72
2023/05/04 01:44:13;;;;;;;;;;;5.90;99.90;;;;;;5131279;27;20346;-72
2023/05/04 01:46:38;;;;;;;;;;;6.00;99.90;;;;;;5114377;27;19969;-71
2023/05/04 01:49:04;;;;;;;;;;;5.90;99.90;;;;;;5128103;27;19923;-72
2023/05/04 01:51:30;;;;;;;;;;;5.90;99.90;;;;;;5122124;27;19920;-72
2023/05/04 01:53:55;;;;;;;;;;;5.90;99.90;;;;;;5130958;27;19919;-72
2023/05/04 01:56:21;;;;;;;;;;;5.90;99.90;;;;;;5100760;27;19927;-72
2023/05/04 01:58:46;;;;;;;;;;;5.90;99.90;;;;;;5131674;27;19980;-72
2023/05/04 02:01:12;;;;;;;;;;;5.90;99.90;;;;;;5115143;27;19920;-71
2023/05/04 02:03:38;;;;;;;;;;;5.90;99.90;;;;;;5115124;27;19915;-72
2023/05/04 02:06:04;;;;;;;;;;;5.90;99.90;;;;;;5118973;27;19916;-68
2023/05/04 02:08:29;;;;;;;;;;;5.90;99.90;;;;;;5122940;27;19924;-68
2023/05/04 02:10:55;;;;;;;;;;;5.90;99.90;;;;;;5126357;27;20294;-68
2023/05/04 02:13:21;;;;;;;;;;;5.90;99.90;;;;;;5137031;27;19919;-68
2023/05/04 02:15:46;;;;;;;;;;;5.90;99.90;;;;;;5121963;27;20415;-68
2023/05/04 02:18:12;;;;;;;;;;;5.90;99.90;;;;;;5137680;27;20407;-68
2023/05/04 02:20:37;;;;;;;;;;;5.90;99.90;;;;;;5139196;27;19926;-68
2023/05/04 02:23:03;;;;;;;;;;;5.90;99.90;;;;;;5145403;27;19944;-68
2023/05/04 02:25:29;;;;;;;;;;;5.90;99.90;;;;;;5141650;27;19941;-68
2023/05/04 02:27:54;;;;;;;;;;;5.80;99.90;;;;;;5148398;27;19971;-68
2023/05/04 02:30:20;;;;;;;;;;;5.90;99.90;;;;;;5139537;27;19958;-68
2023/05/04 02:32:46;;;;;;;;;;;5.80;99.90;;;;;;5135207;27;19916;-68
2023/05/04 02:35:11;;;;;;;;;;;5.80;99.90;;;;;;5120939;27;19915;-68
2023/05/04 02:37:37;;;;;;;;;;;5.80;99.90;;;;;;5132857;27;19926;-68
2023/05/04 02:40:03;;;;;;;;;;;5.80;99.90;;;;;;5132945;27;19931;-68
2023/05/04 02:42:28;;;;;;;;;;;5.80;99.90;;;;;;5132604;27;19919;-68
2023/05/04 02:44:54;;;;;;;;;;;5.80;99.90;;;;;;5134052;27;19915;-68
2023/05/04 02:47:20;;;;;;;;;;;5.80;99.90;;;;;;5132527;27;19915;-72
2023/05/04 02:49:45;;;;;;;;;;;5.80;99.90;;;;;;5132843;27;19998;-72
2023/05/04 02:52:11;;;;;;;;;;;5.80;99.90;;;;;;5123740;27;19931;-72
2023/05/04 02:54:37;;;;;;;;;;;5.80;99.90;;;;;;5129761;27;19926;-71
2023/05/04 02:57:03;;;;;;;;;;;5.80;99.90;;;;;;5112087;28;19920;-71
2023/05/04 02:59:28;;;;;;;;;;;5.80;99.90;;;;;;5111991;28;19927;-72
2023/05/04 03:01:54;;;;;;;;;;;5.80;99.90;;;;;;5111875;28;19915;-72
2023/05/04 03:04:19;;;;;;;;;;;5.80;99.90;;;;;;5111679;28;19970;-68
2023/05/04 03:06:46;;;;;;;;;;;5.80;99.90;;;;;;5127197;27;19919;-68
2023/05/04 03:09:11;;;;;;;;;;;5.80;99.90;;;;;;5130100;27;19919;-68
2023/05/04 03:11:37;;;;;;;;;;;5.80;99.90;;;;;;5138026;27;19919;-68
2023/05/04 03:14:03;;;;;;;;;;;5.80;99.90;;;;;;5150733;27;19915;-71
2023/05/04 03:16:28;;;;;;;;;;;5.80;99.90;;;;;;5148581;27;19919;-72
2023/05/04 03:18:54;;;;;;;;;;;5.80;99.90;;;;;;5133376;27;19919;-72
2023/05/04 03:21:20;;;;;;;;;;;5.80;99.90;;;;;;5135692;27;19923;-71
2023/05/04 03:23:45;;;;;;;;;;;5.80;99.90;;;;;;5127115;27;19924;-71
2023/05/04 03:26:11;;;;;;;;;;;5.80;99.90;;;;;;5138534;27;19921;-72
2023/05/04 03:28:36;;;;;;;;;;;5.90;99.90;;;;;;5127430;27;20473;-72
2023/05/04 03:31:02;;;;;;;;;;;5.80;99.90;;;;;;5131962;27;20009;-72
2023/05/04 03:33:28;;;;;;;;;;;5.80;99.90;;;;;;5136270;27;19938;-70
2023/05/04 03:35:53;;;;;;;;;;;5.90;99.90;;;;;;5138923;27;19918;-71
2023/05/04 03:38:19;;;;;;;;;;;5.90;99.90;;;;;;5147359;27;19919;-73
2023/05/04 03:40:44;;;;;;;;;;;5.80;99.90;;;;;;5140399;27;20361;-72
2023/05/04 03:43:10;;;;;;;;;;;5.90;99.90;;;;;;5123571;27;19951;-71
2023/05/04 03:45:36;;;;;;;;;;;5.90;99.90;;;;;;5132235;27;19926;-70
2023/05/04 03:48:01;;;;;;;;;;;6.00;99.90;;;;;;5152483;27;19919;-71
2023/05/04 03:50:27;;;;;;;;;;;6.00;99.90;;;;;;5147370;27;19981;-68
2023/05/04 03:52:52;;;;;;;;;;;5.90;99.90;;;;;;5141158;27;19950;-70
2023/05/04 03:55:18;;;;;;;;;;;6.00;99.90;;;;;;5121741;27;19927;-71
2023/05/04 03:57:44;;;;;;;;;;;6.00;99.90;;;;;;5144577;27;19927;-71
2023/05/04 04:00:10;;;;;;;;;;;6.00;99.90;;;;;;5112445;27;19930;-71
2023/05/04 04:02:36;;;;;;;;;;;6.00;99.90;;;;;;5132922;27;19998;-71
2023/05/04 04:05:01;;;;;;;;;;;6.00;99.90;;;;;;5143467;27;20270;-71
2023/05/04 04:07:27;;;;;;;;;;;6.10;99.90;;;;;;5136383;27;19919;-71
2023/05/04 04:09:53;;;;;;;;;;;6.10;99.90;;;;;;5150962;27;20266;-71
2023/05/04 04:12:19;;;;;;;;;;;6.10;99.90;;;;;;5149618;27;19918;-70
2023/05/04 04:14:48;;;;;;;;;;;6.10;99.90;;;;;;5143024;27;19919;-70
2023/05/04 04:17:14;;;;;;;;;;;6.20;99.90;;;;;;5126494;27;19926;-71
2023/05/04 04:19:39;;;;;;;;;;;6.20;99.90;;;;;;5094395;27;19927;-70
2023/05/04 04:22:05;;;;;;;;;;;6.20;99.90;;;;;;5139641;27;20278;-70
2023/05/04 04:24:31;;;;;;;;;;;6.20;99.90;;;;;;5126458;27;19922;-71
2023/05/04 04:26:56;;;;;;;;;;;6.20;99.90;;;;;;5137554;27;20386;-71
2023/05/04 04:29:22;;;;;;;;;;;6.20;99.90;;;;;;5120411;27;19939;-71
2023/05/04 04:31:48;;;;;;;;;;;6.20;99.90;;;;;;5124785;27;20366;-70
2023/05/04 04:34:13;;;;;;;;;;;6.20;99.90;;;;;;5120900;27;19915;-70
2023/05/04 04:36:39;;;;;;;;;;;6.20;99.90;;;;;;5121724;27;20378;-70
2023/05/04 04:39:05;;;;;;;;;;;6.20;99.90;;;;;;5138377;27;19921;-70
2023/05/04 04:41:30;;;;;;;;;;;6.20;99.90;;;;;;5138129;27;20488;-71
2023/05/04 04:43:56;;;;;;;;;;;6.30;99.90;;;;;;5111924;27;19920;-70
2023/05/04 04:46:22;;;;;;;;;;;6.20;99.90;;;;;;5129000;27;19929;-71
2023/05/04 04:48:48;;;;;;;;;;;6.30;99.90;;;;;;5125492;27;19923;-71
2023/05/04 04:51:13;;;;;;;;;;;6.30;99.90;;;;;;5129559;27;20382;-70
2023/05/04 04:53:39;;;;;;;;;;;6.30;99.90;;;;;;5116553;28;20315;-70
2023/05/04 04:56:06;;;;;;;;;;;6.30;99.90;;;;;;5131879;27;19920;-70
2023/05/04 04:58:32;;;;;;;;;;;6.30;99.90;;;;;;5135665;27;19986;-70
2023/05/04 05:00:58;;;;;;;;;;;6.40;99.90;;;;;;5125433;27;20346;-71
2023/05/04 05:03:23;;;;;;;;;;;6.40;99.90;;;;;;5108534;27;19930;-70
2023/05/04 05:05:49;;;;;;;;;;;6.50;99.90;;;;;;5111832;27;20014;-70
2023/05/04 05:08:15;;;;;;;;;;;6.50;99.90;;;;;;5092863;28;19955;-71
2023/05/04 05:10:41;;;;;;;;;;;6.50;99.90;;;;;;5121576;27;19915;-71
2023/05/04 05:13:07;;;;;;;;;;;6.60;99.90;;;;;;5127677;27;19979;-70
2023/05/04 05:15:33;;;;;;;;;;;6.60;99.90;;;;;;5127393;27;19919;-71
2023/05/04 05:17:58;;;;;;;;;;;6.70;99.90;;;;;;5113647;28;19916;-70
2023/05/04 05:20:24;;;;;;;;;;;6.70;99.90;;;;;;5119453;27;19915;-71
2023/05/04 05:22:50;;;;;;;;;;;6.80;99.90;;;;;;5111441;27;20006;-71
2023/05/04 05:25:16;;;;;;;;;;;6.80;99.90;;;;;;5132599;27;19916;-70
2023/05/04 05:27:42;;;;;;;;;;;6.90;99.90;;;;;;5154659;27;19930;-70
2023/05/04 05:30:08;;;;;;;;;;;6.90;99.90;;;;;;5143214;27;20362;-70
2023/05/04 05:32:33;;;;;;;;;;;7.00;99.90;;;;;;5131407;27;19931;-70
2023/05/04 05:34:59;;;;;;;;;;;7.00;99.90;;;;;;5122201;27;19924;-70
2023/05/04 05:37:26;;;;;;;;;;;7.10;99.90;;;;;;5127908;27;19923;-70
2023/05/04 05:39:52;;;;;;;;;;;7.20;99.90;;;;;;5112714;27;19916;-71
2023/05/04 05:42:18;;;;;;;;;;;7.20;99.90;;;;;;5113886;27;19926;-71
2023/05/04 05:44:43;;;;;;;;;;;7.30;99.90;;;;;;5116411;27;19995;-71
2023/05/04 05:47:09;;;;;;;;;;;7.40;99.90;;;;;;5126153;27;19920;-70
2023/05/04 05:49:34;;;;;;;;;;;7.40;99.90;;;;;;5096065;28;20240;-71
2023/05/04 05:52:00;;;;;;;;;;;7.50;99.90;;;;;;5132659;27;19919;-71
2023/05/04 05:54:28;;;;;;;;;;;7.50;99.90;;;;;;5114632;27;19916;-71
2023/05/04 05:56:53;;;;;;;;;;;7.60;99.90;;;;;;5134885;27;19915;-70
2023/05/04 05:59:19;;;;;;;;;;;7.60;99.90;;;;;;5123582;27;20311;-71
2023/05/04 06:01:45;;;;;;;;;;;7.70;99.90;;;;;;5135290;27;19918;-70
2023/05/04 06:04:10;;;;;;;;;;;7.80;99.90;;;;;;5107059;27;19915;-71
2023/05/04 06:06:36;;;;;;;;;;;7.80;99.90;;;;;;5125701;27;19938;-70
2023/05/04 06:09:01;;;;;;;;;;;7.90;99.90;;;;;;5095262;28;19965;-70
2023/05/04 06:11:27;;;;;;;;;;;8.10;99.90;;;;;;5126484;27;19966;-70
2023/05/04 06:13:53;;;;;;;;;;;8.30;99.90;;;;;;5114979;27;19915;-70
2023/05/04 06:16:18;;;;;;;;;;;8.60;99.90;;;;;;5132719;27;19930;-71
2023/05/04 06:18:44;;;;;;;;;;;8.70;99.90;;;;;;5114560;27;19919;-70
2023/05/04 06:21:10;;;;;;;;;;;9.00;99.90;;;;;;5132074;27;19919;-70
2023/05/04 06:23:36;;;;;;;;;;;9.30;99.90;;;;;;5132348;27;19919;-70
2023/05/04 06:26:04;;;;;;;;;;;9.60;68.30;;;;;;5132331;27;19938;-70
2023/05/04 06:28:30;;;;;;;;;;;9.80;23.50;;;;;;5131788;27;19927;-71
2023/05/04 06:30:56;;;;;;;;;;;9.80;1.00;;;;;;5134197;27;20419;-71
2023/05/04 06:33:21;;;;;;;;;;;9.80;1.00;;;;;;5133055;27;20362;-71
2023/05/04 06:35:47;;;;;;;;;;;9.70;1.00;;;;;;5132373;27;20033;-70
2023/05/04 06:38:12;;;;;;;;;;;9.70;1.00;;;;;;5132601;27;19920;-71
2023/05/04 06:40:38;;;;;;;;;;;9.70;5.10;;;;;;5134026;27;19919;-71
2023/05/04 06:43:04;;;;;;;;;;;9.80;15.50;;;;;;5132696;27;20030;-71
2023/05/04 06:45:29;;;;;;;;;;;10.00;1.00;;;;;;5132561;27;20335;-71
2023/05/04 06:47:55;;;;;;;;;;;10.20;8.00;;;;;;5132178;27;19929;-71
2023/05/04 06:50:22;;;;;;;;;;;10.40;1.00;;;;;;5132522;27;19919;-72
2023/05/04 06:52:48;;;;;;;;;;;10.60;1.00;;;;;;5132286;27;19924;-71
2023/05/04 06:55:13;;;;;;;;;;;10.70;1.00;;;;;;5114983;27;19922;-71
2023/05/04 06:57:39;;;;;;;;;;;10.70;1.00;;;;;;5132792;27;19997;-71
2023/05/04 07:00:05;;;;;;;;;;;10.80;1.00;;;;;;5133575;27;20375;-72
2023/05/04 07:02:31;;;;;;;;;;;10.70;1.00;;;;;;5132310;27;19915;-71
2023/05/04 07:04:56;;;;;;;;;;;10.50;99.90;;;;;;5132296;27;20355;-71
2023/05/04 07:07:22;;;;;;;;;;;10.60;1.00;;;;;;5131914;27;20238;-71
2023/05/04 07:09:49;;;;;;;;;;;10.60;1.00;;;;;;5132340;27;19968;-70
2023/05/04 07:12:14;;;;;;;;;;;10.70;99.90;;;;;;5131880;27;19955;-70
2023/05/04 07:14:40;;;;;;;;;;;10.90;99.90;;;;;;5131900;27;20406;-71
2023/05/04 07:17:08;;;;;;;;;;;11.20;99.90;;;;;;5131789;27;19919;-70
2023/05/04 07:19:34;;;;;;;;;;;11.50;99.90;;;;;;5131890;27;19919;-71
2023/05/04 07:22:00;;;;;;;;;;;11.70;99.90;;;;;;5132132;27;19971;-71
2023/05/04 07:24:29;;;;;;;;;;;11.80;99.90;;;;;;5131741;27;20384;-71
2023/05/04 07:26:55;;;;;;;;;;;12.00;99.90;;;;;;5131506;27;19975;-71
2023/05/04 07:29:21;;;;;;;;;;;12.10;99.90;;;;;;5131392;27;19923;-72
2023/05/04 07:31:47;;;;;;;;;;;12.30;99.90;;;;;;5131745;27;19916;-71
2023/05/04 07:34:13;;;;;;;;;;;12.40;99.90;;;;;;5130793;27;20282;-71
2023/05/04 07:36:38;;;;;;;;;;;12.40;99.90;;;;;;5131360;27;20433;-71
2023/05/04 07:39:04;;;;;;;;;;;12.50;99.90;;;;;;5131657;27;19958;-71
2023/05/04 07:41:29;;;;;;;;;;;12.50;99.90;;;;;;5131098;27;19923;-71
2023/05/04 07:43:55;;;;;;;;;;;12.50;99.90;;;;;;5097456;27;19915;-71
2023/05/04 07:46:21;;;;;;;;;;;12.50;99.90;;;;;;5131559;27;19925;-71
2023/05/04 07:48:46;;;;;;;;;;;12.60;99.90;;;;;;5130986;27;19925;-71
2023/05/04 07:51:12;;;;;;;;;;;12.50;99.90;;;;;;5113590;27;19915;-71
2023/05/04 07:53:38;;;;;;;;;;;12.50;99.90;;;;;;5131016;27;19963;-71
2023/05/04 07:56:11;;;;;;;;;;;12.50;99.90;;;;;;5113825;27;19955;-71
2023/05/04 07:58:37;;;;;;;;;;;12.50;99.90;;;;;;5130815;27;20355;-71
2023/05/04 08:01:03;;;;;;;;;;;12.50;99.90;;;;;;5130839;27;19948;-71
2023/05/04 08:03:29;;;;;;;;;;;12.60;99.90;;;;;;5113701;27;19926;-71
2023/05/04 08:05:55;;;;;;;;;;;12.60;99.90;;;;;;5130636;27;20307;-72
2023/05/04 08:08:21;;;;;;;;;;;12.70;99.90;;;;;;5130766;27;19930;-71
2023/05/04 08:10:46;;;;;;;;;;;12.80;99.90;;;;;;5130570;27;20055;-72
2023/05/04 08:13:12;;;;;;;;;;;13.00;99.90;;;;;;5131038;27;19923;-71
2023/05/04 08:15:37;;;;;;;;;;;12.90;99.90;;;;;;5130833;27;19972;-71
2023/05/04 08:18:03;;;;;;;;;;;13.30;99.90;;;;;;5130666;27;19968;-71
2023/05/04 08:20:28;;;;;;;;;;;13.50;99.90;;;;;;5131921;27;19916;-71
2023/05/04 08:22:54;;;;;;;;;;;13.70;99.90;;;;;;5130608;27;19977;-71
2023/05/04 08:25:21;;;;;;;;;;;13.80;99.90;;;;;;5130734;27;19946;-72
2023/05/04 08:27:47;;;;;;;;;;;13.80;99.90;;;;;;5130428;27;20393;-71
2023/05/04 08:30:13;;;;;;;;;;;14.00;99.90;;;;;;5130599;27;19955;-71
2023/05/04 08:32:38;;;;;;;;;;;14.10;99.90;;;;;;5130339;27;20006;-71
2023/05/04 08:35:04;;;;;;;;;;;14.00;99.90;;;;;;5113614;27;19927;-71
2023/05/04 08:37:30;;;;;;;;;;;13.80;99.90;;;;;;5130404;27;20022;-71
2023/05/04 08:39:56;;;;;;;;;;;13.70;99.90;;;;;;5130768;27;19915;-67
2023/05/04 08:42:28;;;;;;;;;;;13.80;99.90;;;;;;5131928;27;19915;-67
2023/05/04 08:44:54;;;;;;;;;;;13.80;99.90;;;;;;5129970;27;19919;-67
2023/05/04 08:47:20;;;;;;;;;;;14.10;99.90;;;;;;5113483;28;19942;-67
2023/05/04 08:49:46;;;;;;;;;;;14.10;99.90;;;;;;5130170;27;20282;-67
2023/05/04 08:52:12;;;;;;;;;;;14.20;99.90;;;;;;5129848;28;20286;-67
2023/05/04 08:54:38;;;;;;;;;;;14.30;99.90;;;;;;5130182;28;19919;-67
2023/05/04 08:57:04;;;;;;;;;;;14.40;99.90;;;;;;5130066;28;19919;-67
2023/05/04 08:59:30;;;;;;;;;;;14.80;99.90;;;;;;5131447;28;19964;-68
2023/05/04 09:01:57;;;;;;;;;;;15.00;99.90;;;;;;5130017;28;19926;-68
2023/05/04 09:04:23;;;;;;;;;;;15.10;99.90;;;;;;5130249;28;19938;-68
2023/05/04 09:06:49;;;;;;;;;;;15.20;50.80;;;;;;5130133;27;19920;-68
2023/05/04 09:09:15;;;;;;;;;;;15.40;15.50;;;;;;5131349;27;20026;-67
2023/05/04 09:11:41;;;;;;;;;;;15.40;14.00;;;;;;5130377;28;20023;-67
2023/05/04 09:14:06;;;;;;;;;;;15.70;2.60;;;;;;5130341;28;20379;-67
2023/05/04 09:16:36;;;;;;;;;;;15.90;1.00;;;;;;5130135;27;19927;-68
2023/05/04 09:19:16;;;;;;;;;;;16.00;1.00;;;;;;5130157;28;19926;-68
2023/05/04 09:21:42;;;;;;;;;;;16.10;1.00;;;;;;5129868;28;20290;-68
2023/05/04 09:24:08;;;;;;;;;;;16.00;1.00;;;;;;5129933;28;20353;-68
2023/05/04 09:26:34;;;;;;;;;;;16.10;1.00;;;;;;5129670;27;20014;-68
2023/05/04 09:29:13;;;;;;;;;;;16.20;1.00;;;;;;5129995;28;20014;-68
2023/05/04 09:31:43;;;;;;;;;;;16.40;1.00;;;;;;5130130;28;19976;-68
2023/05/04 09:34:09;;;;;;;;;;;16.40;1.00;;;;;;5112886;28;19923;-67
2023/05/04 09:36:34;;;;;;;;;;;16.40;1.00;;;;;;5112430;28;19922;-69
2023/05/04 09:39:09;;;;;;;;;;;16.30;1.00;;;;;;5129748;27;20006;-68
2023/05/04 09:41:35;;;;;;;;;;;16.10;99.90;;;;;;5129734;28;19961;-68
2023/05/04 09:44:02;;;;;;;;;;;16.20;99.90;;;;;;5129791;28;19966;-68
2023/05/04 09:46:28;;;;;;;;;;;16.60;1.00;;;;;;5112991;28;19915;-68
2023/05/04 09:48:55;;;;;;;;;;;16.80;99.90;;;;;;5129639;28;20451;-68
2023/05/04 09:51:22;;;;;;;;;;;16.80;99.90;;;;;;5129855;27;19985;-68
2023/05/04 09:53:49;;;;;;;;;;;16.90;99.90;;;;;;5129589;28;19923;-68
2023/05/04 09:56:30;;;;;;;;;;;17.00;99.90;;;;;;5129473;27;19923;-68
2023/05/04 09:58:58;;;;;;;;;;;17.20;99.90;;;;;;5132896;27;19966;-68
2023/05/04 10:01:30;;;;;;;;;;;17.20;99.90;;;;;;5133487;27;19923;-67
2023/05/04 10:03:56;;;;;;;;;;;17.10;99.90;;;;;;5133196;27;19926;-67
2023/05/04 10:06:27;;;;;;;;;;;17.30;99.90;;;;;;5133500;27;19919;-68
2023/05/04 10:08:53;;;;;;;;;;;17.50;99.90;;;;;;5133206;27;19919;-68
2023/05/04 10:11:20;;;;;;;;;;;17.60;99.90;;;;;;5133291;27;19975;-68
2023/05/04 10:13:46;;;;;;;;;;;17.60;99.90;;;;;;5133015;27;19926;-67
2023/05/04 10:16:24;;;;;;;;;;;17.70;99.90;;;;;;5133257;27;19919;-68
2023/05/04 10:19:09;;;;;;;;;;;18.00;99.90;;;;;;5134364;27;19919;-68
2023/05/04 10:21:43;;;;;;;;;;;18.10;99.90;;;;;;5133205;27;19953;-68
2023/05/04 10:24:38;;;;;;;;;;;18.00;99.90;;;;;;5115988;27;20020;-68
2023/05/04 10:27:07;;;;;;;;;;;18.00;99.90;;;;;;5078627;27;19920;-68
2023/05/04 10:29:33;;;;;;;;;;;18.00;99.90;;;;;;5132700;27;19934;-69
2023/05/04 10:31:59;;;;;;;;;;;17.80;99.90;;;;;;5133956;27;19988;-68
2023/05/04 10:34:28;;;;;;;;;;;17.90;99.90;;;;;;5132653;27;19958;-68
2023/05/04 10:36:55;;;;;;;;;;;17.80;99.90;;;;;;5132775;27;19926;-68
2023/05/04 10:39:21;;;;;;;;;;;17.80;99.90;;;;;;5132731;27;19923;-68
2023/05/04 10:42:03;;;;;;;;;;;17.90;99.90;;;;;;5132345;27;19915;-68
2023/05/04 10:44:30;;;;;;;;;;;17.90;99.90;;;;;;5132653;27;19979;-68
2023/05/04 10:46:56;;;;;;;;;;;17.90;99.90;;;;;;5132595;27;19915;-68
2023/05/04 10:49:22;;;;;;;;;;;17.90;99.90;;;;;;5132322;27;20394;-68
2023/05/04 10:51:47;;;;;;;;;;;18.10;99.90;;;;;;5132465;27;19919;-68
2023/05/04 10:54:19;;;;;;;;;;;18.30;99.90;;;;;;5114948;27;20355;-68
2023/05/04 10:56:45;;;;;;;;;;;18.30;99.90;;;;;;5132266;27;19984;-68
2023/05/04 10:59:11;;;;;;;;;;;18.50;99.90;;;;;;5132184;27;19966;-67
2023/05/04 11:01:46;;;;;;;;;;;18.60;99.90;;;;;;5132121;27;20291;-68
2023/05/04 11:04:19;;;;;;;;;;;18.60;99.90;;;;;;5132218;27;19972;-68
2023/05/04 11:06:54;;;;;;;;;;;18.50;99.90;;;;;;5132101;27;19915;-69
2023/05/04 11:09:20;;;;;;;;;;;18.70;99.90;;;;;;5131945;27;19926;-69
2023/05/04 11:11:46;;;;;;;;;;;19.10;99.90;;;;;;5131882;27;20298;-69
2023/05/04 11:14:19;;;;;;;;;;;19.10;99.90;;;;;;5132002;27;19923;-69
2023/05/04 11:16:45;;;;;;;;;;;19.20;99.90;;;;;;5131875;27;19979;-70
2023/05/04 11:19:11;;;;;;;;;;;19.60;99.90;;;;;;5131995;27;19919;-69
2023/05/04 11:21:36;;;;;;;;;;;19.50;99.90;;;;;;5131849;27;19919;-69
2023/05/04 11:24:02;;;;;;;;;;;19.50;99.90;;;;;;5131891;27;20071;-69
2023/05/04 11:26:28;;;;;;;;;;;19.30;99.90;;;;;;5131649;27;19962;-69
2023/05/04 11:28:53;;;;;;;;;;;19.20;99.90;;;;;;5131640;27;20002;-69
2023/05/04 11:31:20;;;;;;;;;;;19.10;99.90;;;;;;5131960;27;20006;-69
2023/05/04 11:33:46;;;;;;;;;;;19.30;99.90;;;;;;5131836;27;20434;-69
2023/05/04 11:36:12;;;;;;;;;;;19.30;99.90;;;;;;5131411;27;20399;-69
2023/05/04 11:38:38;;;;;;;;;;;19.60;99.90;;;;;;5131704;27;19915;-69
2023/05/04 11:41:04;;;;;;;;;;;20.00;99.90;;;;;;5131392;27;19934;-69
2023/05/04 11:43:31;;;;;;;;;;;20.30;99.90;;;;;;5131641;27;19930;-69
2023/05/04 11:45:59;;;;;;;;;;;20.30;99.90;;;;;;5133078;27;19915;-69
2023/05/04 11:48:25;;;;;;;;;;;20.40;99.90;;;;;;5132746;27;19919;-69
2023/05/04 11:50:51;;;;;;;;;;;20.30;99.90;;;;;;5132588;27;19916;-69
2023/05/04 11:53:20;;;;;;;;;;;20.30;99.90;;;;;;5131032;27;19923;-69
2023/05/04 11:55:46;;;;;;;;;;;20.20;99.90;;;;;;5131215;27;19926;-69
2023/05/04 11:58:11;;;;;;;;;;;20.10;99.90;;;;;;5131293;27;19919;-69
2023/05/04 12:00:44;;;;;;;;;;;20.00;99.90;;;;;;5130924;27;19919;-69
2023/05/04 12:03:26;;;;;;;;;;;19.80;99.90;;;;;;5131328;27;19943;-69
2023/05/04 12:05:53;;;;;;;;;;;19.70;99.90;;;;;;5131090;27;20002;-69
2023/05/04 12:08:30;;;;;;;;;;;19.80;99.90;;;;;;5130955;27;20370;-69
2023/05/04 12:11:09;;;;;;;;;;;20.20;99.90;;;;;;5130834;27;20354;-69
2023/05/04 12:13:35;;;;;;;;;;;20.60;99.90;;;;;;5130749;27;19919;-69
2023/05/04 12:16:11;;;;;;;;;;;20.60;99.90;;;;;;5130824;27;19919;-69
2023/05/04 12:18:37;;;;;;;;;;;20.60;99.90;;;;;;5113527;27;19923;-69
2023/05/04 12:21:10;;;;;;;;;;;20.40;99.90;;;;;;5131556;27;19921;-69
2023/05/04 12:23:35;;;;;;;;;;;20.40;99.90;;;;;;5130991;27;20277;-69
2023/05/04 12:26:01;;;;;;;;;;;20.30;99.90;;;;;;5130493;27;20006;-69
2023/05/04 12:28:28;;;;;;;;;;;20.10;99.90;;;;;;5130670;27;19966;-69
2023/05/04 12:30:53;;;;;;;;;;;20.00;99.90;;;;;;5130382;27;19919;-69
2023/05/04 12:33:19;;;;;;;;;;;20.10;99.90;;;;;;5130544;27;19919;-69
2023/05/04 12:35:45;;;;;;;;;;;20.00;99.90;;;;;;5130349;27;19916;-69
2023/05/04 12:38:11;;;;;;;;;;;20.30;99.90;;;;;;5113389;27;19967;-69
2023/05/04 12:40:37;;;;;;;;;;;20.60;99.90;;;;;;5130588;27;19919;-69
2023/05/04 12:43:03;;;;;;;;;;;20.60;99.90;;;;;;5130833;27;20346;-69
2023/05/04 12:45:28;;;;;;;;;;;20.70;99.90;;;;;;5113232;28;20032;-69
2023/05/04 12:47:54;;;;;;;;;;;20.70;99.90;;;;;;5130254;27;19923;-69
2023/05/04 12:50:19;;;;;;;;;;;20.90;99.90;;;;;;5130656;27;20516;-69
2023/05/04 12:52:45;;;;;;;;;;;21.00;99.90;;;;;;5095997;28;20239;-68
2023/05/04 12:55:11;;;;;;;;;;;21.00;99.90;;;;;;5131568;27;19959;-69
2023/05/04 12:57:38;;;;;;;;;;;21.10;99.90;;;;;;5126106;27;20317;-70
2023/05/04 13:00:07;;;;;;;;;;;21.20;99.90;;;;;;5116059;27;19922;-70
2023/05/04 13:02:32;;;;;;;;;;;21.10;99.90;;;;;;5143098;27;19967;-70
2023/05/04 13:04:58;;;;;;;;;;;21.40;99.90;;;;;;5122399;27;19922;-69
2023/05/04 13:07:24;;;;;;;;;;;21.80;99.90;;;;;;5134647;27;20342;-70
2023/05/04 13:09:49;;;;;;;;;;;21.80;99.90;;;;;;5129995;27;20010;-70
2023/05/04 13:12:15;;;;;;;;;;;21.70;99.90;;;;;;5133319;27;19926;-70
2023/05/04 13:14:40;;;;;;;;;;;21.70;99.90;;;;;;5148230;27;19918;-70
2023/05/04 13:17:06;;;;;;;;;;;21.90;99.90;;;;;;5133388;27;19920;-69
2023/05/04 13:19:32;;;;;;;;;;;21.60;99.90;;;;;;5150214;27;20001;-69
2023/05/04 13:21:57;;;;;;;;;;;21.60;99.90;;;;;;5129236;27;19923;-69
2023/05/04 13:24:23;;;;;;;;;;;21.50;99.90;;;;;;5151959;27;20401;-70
2023/05/04 13:26:48;;;;;;;;;;;21.40;99.90;;;;;;5150748;27;19915;-69
2023/05/04 13:29:14;;;;;;;;;;;21.40;99.90;;;;;;5131396;27;20341;-69
2023/05/04 13:31:40;;;;;;;;;;;21.50;99.90;;;;;;5141486;27;19923;-71
2023/05/04 13:34:06;;;;;;;;;;;21.70;99.90;;;;;;5151308;27;19914;-70
2023/05/04 13:36:32;;;;;;;;;;;21.80;99.90;;;;;;5134219;27;19915;-70
2023/05/04 13:38:57;;;;;;;;;;;21.90;99.90;;;;;;5127855;27;19934;-71
2023/05/04 13:41:23;;;;;;;;;;;21.80;99.90;;;;;;5148727;27;20021;-69
2023/05/04 13:43:48;;;;;;;;;;;21.60;99.90;;;;;;5142408;27;19938;-70
2023/05/04 13:46:14;;;;;;;;;;;21.50;99.90;;;;;;5128042;27;20013;-70
2023/05/04 13:48:40;;;;;;;;;;;21.30;99.90;;;;;;5139411;27;19927;-70
2023/05/04 13:51:05;;;;;;;;;;;21.20;99.90;;;;;;5122273;27;19950;-70
2023/05/04 13:53:31;;;;;;;;;;;21.20;99.90;;;;;;5122443;27;19920;-70
2023/05/04 13:55:57;;;;;;;;;;;21.30;99.90;;;;;;5097135;28;19922;-71
2023/05/04 13:58:22;;;;;;;;;;;21.30;99.90;;;;;;5127780;27;19930;-69
2023/05/04 14:00:48;;;;;;;;;;;21.60;99.90;;;;;;5131627;27;19927;-69
2023/05/04 14:03:14;;;;;;;;;;;21.80;99.90;;;;;;5133922;27;19915;-69
2023/05/04 14:05:39;;;;;;;;;;;22.00;99.90;;;;;;5117841;27;19930;-69
2023/05/04 14:08:05;;;;;;;;;;;21.90;99.90;;;;;;5124172;27;19923;-70
2023/05/04 14:10:31;;;;;;;;;;;21.80;99.90;;;;;;5114414;27;20146;-70
2023/05/04 14:12:56;;;;;;;;;;;21.90;99.90;;;;;;5130919;27;19935;-70
2023/05/04 14:15:22;;;;;;;;;;;22.00;99.90;;;;;;5122512;27;19930;-70
2023/05/04 14:17:48;;;;;;;;;;;21.90;99.90;;;;;;5096923;27;19961;-69
2023/05/04 14:20:13;;;;;;;;;;;21.90;99.90;;;;;;5115594;27;19919;-69